Time;durP1;ratioP1;P1;durP2;ratioP2;P2;SDS_P1;SDS_P2;PMS_P1;PMS_P2;Temp;Humidity;BMP_temperature;BMP_pressure;BME280_temperature;BME280_humidity;BME280_pressure;Samples;Min_cycle;Max_cycle;Signal;HPM_P1;HPM_P2
2022/10/24 00:00:42;;;;;;;1.15;0.80;;;18.80;99.90;;;;;;5071542;28;20584;-71
2022/10/24 00:03:09;;;;;;;2.60;1.08;;;18.90;99.90;;;;;;5054121;28;20249;-70
2022/10/24 00:05:35;;;;;;;1.50;0.80;;;18.90;99.90;;;;;;5038040;28;20226;-71
2022/10/24 00:08:01;;;;;;;2.08;0.98;;;18.90;99.90;;;;;;5074163;28;20193;-70
2022/10/24 00:10:27;;;;;;;1.58;0.77;;;18.90;99.90;;;;;;5057569;28;20720;-70
2022/10/24 00:12:53;;;;;;;1.95;1.10;;;18.90;99.90;;;;;;5040963;28;20182;-71
2022/10/24 00:15:20;;;;;;;1.35;1.05;;;18.80;99.90;;;;;;5073774;28;20183;-71
2022/10/24 00:17:46;;;;;;;1.08;0.98;;;18.80;99.90;;;;;;5070831;28;20205;-70
2022/10/24 00:20:12;;;;;;;3.50;1.00;;;18.80;99.90;;;;;;5073737;28;20185;-70
2022/10/24 00:22:38;;;;;;;1.00;0.90;;;18.80;99.90;;;;;;5073626;28;20241;-71
2022/10/24 00:25:05;;;;;;;1.50;1.00;;;18.90;99.90;;;;;;5073747;28;20641;-71
2022/10/24 00:27:33;;;;;;;1.95;1.00;;;18.80;99.90;;;;;;5056785;28;20197;-71
2022/10/24 00:29:58;;;;;;;1.67;1.08;;;18.80;99.90;;;;;;5073817;28;20276;-71
2022/10/24 00:32:24;;;;;;;1.65;0.90;;;18.80;99.90;;;;;;5073428;28;20212;-71
2022/10/24 00:34:50;;;;;;;2.78;1.10;;;18.80;99.90;;;;;;5056887;28;20223;-71
2022/10/24 00:37:16;;;;;;;1.95;0.90;;;18.80;99.90;;;;;;5056509;28;20223;-71
2022/10/24 00:39:42;;;;;;;3.35;1.00;;;18.80;99.90;;;;;;5057076;28;20182;-71
2022/10/24 00:42:10;;;;;;;2.47;1.00;;;18.80;99.90;;;;;;5074598;28;20251;-70
2022/10/24 00:44:41;;;;;;;1.83;0.98;;;18.80;99.90;;;;;;5056655;28;20232;-71
2022/10/24 00:47:27;;;;;;;1.88;0.70;;;18.80;99.90;;;;;;5074361;28;20178;-71
2022/10/24 00:50:04;;;;;;;1.80;1.08;;;18.90;99.90;;;;;;5073343;28;20178;-69
2022/10/24 00:52:39;;;;;;;1.48;0.90;;;18.80;99.90;;;;;;5073190;28;20262;-70
2022/10/24 00:55:07;;;;;;;1.80;1.00;;;18.80;99.90;;;;;;5073157;28;20550;-70
2022/10/24 00:57:46;;;;;;;1.33;0.80;;;18.80;99.90;;;;;;5073087;28;20170;-71
2022/10/24 01:00:21;;;;;;;1.60;1.25;;;18.80;99.90;;;;;;5072984;28;20265;-71
2022/10/24 01:02:47;;;;;;;1.23;0.82;;;18.80;99.90;;;;;;5072940;28;20216;-71
2022/10/24 01:05:14;;;;;;;1.15;0.80;;;18.80;99.90;;;;;;5073269;28;20166;-71
2022/10/24 01:07:53;;;;;;;1.55;0.90;;;18.80;99.90;;;;;;5072618;28;20177;-70
2022/10/24 01:10:47;;;;;;;1.40;1.00;;;18.80;99.90;;;;;;5056191;28;20162;-71
2022/10/24 01:14:01;;;;;;;1.00;0.90;;;18.80;99.90;;;;;;5073125;28;20190;-70
2022/10/24 01:16:49;;;;;;;2.30;1.10;;;18.90;99.90;;;;;;5054461;28;20233;-71
2022/10/24 01:19:45;;;;;;;3.38;1.00;;;18.80;99.90;;;;;;5072701;28;20867;-70
2022/10/24 01:22:21;;;;;;;1.33;0.80;;;18.80;99.90;;;;;;5073791;28;20216;-71
2022/10/24 01:25:09;;;;;;;1.08;0.80;;;18.80;99.90;;;;;;5073966;28;20170;-70
2022/10/24 01:28:06;;;;;;;1.92;0.95;;;18.80;99.90;;;;;;5072456;28;20215;-71
2022/10/24 01:31:03;;;;;;;2.72;0.80;;;18.80;99.90;;;;;;5072761;28;20169;-71
2022/10/24 01:33:50;;;;;;;1.67;0.90;;;18.80;99.90;;;;;;5072765;28;20182;-71
2022/10/24 01:36:37;;;;;;;2.22;1.00;;;18.80;99.90;;;;;;5055287;28;20692;-70
2022/10/24 01:39:13;;;;;;;1.40;0.80;;;18.80;99.90;;;;;;5072300;28;20196;-70
2022/10/24 01:41:42;;;;;;;1.30;1.00;;;18.80;99.90;;;;;;5073321;28;20208;-70
2022/10/24 01:44:30;;;;;;;2.58;0.88;;;18.80;99.90;;;;;;5072117;28;20170;-71
2022/10/24 01:47:07;;;;;;;1.00;0.95;;;18.80;99.90;;;;;;5072354;28;20224;-70
2022/10/24 01:49:36;;;;;;;1.60;1.02;;;18.80;99.90;;;;;;5072318;28;20638;-70
2022/10/24 01:52:10;;;;;;;1.42;0.90;;;18.80;99.90;;;;;;5071814;28;20198;-72
2022/10/24 01:54:38;;;;;;;1.90;0.82;;;18.80;99.90;;;;;;5071894;28;20186;-71
2022/10/24 01:57:04;;;;;;;1.73;0.80;;;18.80;99.90;;;;;;5071752;28;20236;-68
2022/10/24 01:59:30;;;;;;;2.05;0.80;;;18.80;99.90;;;;;;5071947;28;20173;-68
2022/10/24 02:02:05;;;;;;;1.58;1.10;;;18.80;99.90;;;;;;5055007;28;20201;-69
2022/10/24 02:04:36;;;;;;;3.05;1.08;;;18.80;99.90;;;;;;5063224;28;20194;-68
2022/10/24 02:07:07;;;;;;;1.55;0.93;;;18.80;99.90;;;;;;5071315;28;20650;-68
2022/10/24 02:09:38;;;;;;;1.30;0.90;;;18.80;99.90;;;;;;5055108;28;20182;-68
2022/10/24 02:12:08;;;;;;;1.25;1.15;;;18.80;99.90;;;;;;5088690;28;20205;-68
2022/10/24 02:14:44;;;;;;;1.23;0.90;;;18.80;99.90;;;;;;5088808;28;20260;-68
2022/10/24 02:17:10;;;;;;;2.60;1.02;;;18.80;99.90;;;;;;5071296;28;20243;-68
2022/10/24 02:19:37;;;;;;;1.02;0.85;;;18.80;99.90;;;;;;5071378;28;20182;-68
2022/10/24 02:22:24;;;;;;;1.45;0.90;;;18.80;99.90;;;;;;5088191;28;20209;-68
2022/10/24 02:25:30;;;;;;;1.95;0.90;;;18.80;99.90;;;;;;5054796;28;20199;-69
2022/10/24 02:28:20;;;;;;;1.58;1.13;;;18.80;99.90;;;;;;5071190;28;20216;-69
2022/10/24 02:31:07;;;;;;;1.73;0.90;;;18.80;99.90;;;;;;5071953;28;20202;-68
2022/10/24 02:33:36;;;;;;;1.48;1.05;;;18.80;99.90;;;;;;5054674;28;20189;-68
2022/10/24 02:36:05;;;;;;;1.45;1.10;;;18.80;99.90;;;;;;5072308;28;20217;-68
2022/10/24 02:38:37;;;;;;;3.17;0.77;;;18.80;99.90;;;;;;5054913;28;20217;-67
2022/10/24 02:41:10;;;;;;;2.20;1.20;;;18.80;99.90;;;;;;5072554;28;20254;-68
2022/10/24 02:43:39;;;;;;;1.88;1.08;;;18.80;99.90;;;;;;5054442;28;20268;-69
2022/10/24 02:46:08;;;;;;;2.03;0.90;;;18.80;99.90;;;;;;5070904;28;20181;-68
2022/10/24 02:48:40;;;;;;;1.63;0.80;;;18.80;99.90;;;;;;5071361;28;20189;-67
2022/10/24 02:51:07;;;;;;;0.80;0.80;;;18.80;99.90;;;;;;5071103;28;20747;-68
2022/10/24 02:53:36;;;;;;;1.33;0.90;;;18.80;99.90;;;;;;5054442;28;20538;-68
2022/10/24 02:56:02;;;;;;;1.70;1.00;;;18.80;99.90;;;;;;5070588;28;20229;-68
2022/10/24 02:58:28;;;;;;;1.85;1.30;;;18.80;99.90;;;;;;5072129;28;20185;-69
2022/10/24 03:00:53;;;;;;;1.25;0.90;;;18.80;99.90;;;;;;5070797;28;20209;-68
2022/10/24 03:03:21;;;;;;;1.40;0.80;;;18.80;99.90;;;;;;5070788;28;20209;-68
2022/10/24 03:05:47;;;;;;;1.70;1.00;;;18.80;99.90;;;;;;5087941;28;20185;-69
2022/10/24 03:08:13;;;;;;;2.60;1.30;;;18.80;99.90;;;;;;5053975;28;20661;-69
2022/10/24 03:10:39;;;;;;;1.30;0.77;;;18.80;99.90;;;;;;5070801;28;20188;-68
2022/10/24 03:13:05;;;;;;;1.40;0.90;;;18.80;99.90;;;;;;5054171;28;20225;-68
2022/10/24 03:15:31;;;;;;;1.40;0.95;;;18.80;99.90;;;;;;5054312;28;20296;-69
2022/10/24 03:17:57;;;;;;;1.38;0.73;;;18.80;99.90;;;;;;5053915;28;20195;-68
2022/10/24 03:20:24;;;;;;;1.83;1.00;;;18.80;99.90;;;;;;5071997;28;20264;-68
2022/10/24 03:22:50;;;;;;;1.55;0.98;;;18.80;99.90;;;;;;5070673;28;20238;-69
2022/10/24 03:25:16;;;;;;;2.20;1.00;;;18.80;99.90;;;;;;5072023;28;20223;-68
2022/10/24 03:27:42;;;;;;;1.23;0.95;;;18.80;99.90;;;;;;5053923;28;20174;-68
2022/10/24 03:30:09;;;;;;;1.52;0.93;;;18.80;99.90;;;;;;5087891;28;20185;-67
2022/10/24 03:32:35;;;;;;;2.08;0.93;;;18.80;99.90;;;;;;5070979;28;20202;-68
2022/10/24 03:35:02;;;;;;;1.55;0.90;;;18.80;99.90;;;;;;5071941;28;20216;-69
2022/10/24 03:37:28;;;;;;;2.30;0.93;;;18.80;99.90;;;;;;5071615;28;20201;-68
2022/10/24 03:39:54;;;;;;;1.75;1.05;;;18.80;99.90;;;;;;5070636;28;20182;-67
2022/10/24 03:42:20;;;;;;;1.33;0.82;;;18.80;99.90;;;;;;5074480;28;20251;-68
2022/10/24 03:44:46;;;;;;;2.35;1.02;;;18.80;99.90;;;;;;5057692;28;20190;-68
2022/10/24 03:47:12;;;;;;;1.73;1.20;;;18.80;99.90;;;;;;5091145;28;20189;-68
2022/10/24 03:49:38;;;;;;;0.95;0.85;;;18.80;99.90;;;;;;5074587;28;20189;-68
2022/10/24 03:52:04;;;;;;;1.52;1.05;;;18.80;99.90;;;;;;5074215;28;20205;-68
2022/10/24 03:54:30;;;;;;;2.15;0.90;;;18.80;99.90;;;;;;5074092;28;20193;-68
2022/10/24 03:56:55;;;;;;;1.30;0.98;;;18.80;99.90;;;;;;5075518;28;20288;-68
2022/10/24 03:59:21;;;;;;;1.92;1.00;;;18.80;99.90;;;;;;5057566;28;20676;-68
2022/10/24 04:01:47;;;;;;;1.30;0.80;;;18.80;99.90;;;;;;5074081;28;20286;-68
2022/10/24 04:04:13;;;;;;;2.28;1.00;;;18.70;99.90;;;;;;5091029;28;20270;-68
2022/10/24 04:06:39;;;;;;;1.58;1.00;;;18.70;99.90;;;;;;5057306;28;20190;-67
2022/10/24 04:09:05;;;;;;;2.33;1.05;;;18.70;99.90;;;;;;5075249;28;20182;-67
2022/10/24 04:11:31;;;;;;;1.67;0.98;;;18.70;99.90;;;;;;5073882;28;20205;-69
2022/10/24 04:13:59;;;;;;;2.10;1.00;;;18.70;99.90;;;;;;5073898;28;20287;-68
2022/10/24 04:16:26;;;;;;;2.28;1.20;;;18.70;99.90;;;;;;5073560;28;20206;-69
2022/10/24 04:18:52;;;;;;;1.75;1.10;;;18.70;99.90;;;;;;5057259;28;20182;-68
2022/10/24 04:21:19;;;;;;;2.28;0.85;;;18.70;99.90;;;;;;5056985;28;20210;-69
2022/10/24 04:23:44;;;;;;;1.52;1.00;;;18.70;99.90;;;;;;5073720;28;20225;-68
2022/10/24 04:26:14;;;;;;;2.03;1.20;;;18.70;99.90;;;;;;5074729;28;20188;-68
2022/10/24 04:28:39;;;;;;;1.35;1.25;;;18.70;99.90;;;;;;5057119;28;20182;-68
2022/10/24 04:31:06;;;;;;;2.55;1.17;;;18.80;99.90;;;;;;5073645;28;20210;-69
2022/10/24 04:33:32;;;;;;;2.75;1.10;;;18.80;99.90;;;;;;5073420;28;20288;-68
2022/10/24 04:35:57;;;;;;;1.70;1.10;;;18.70;99.90;;;;;;5056600;28;20235;-69
2022/10/24 04:38:23;;;;;;;1.80;0.80;;;18.70;99.90;;;;;;5056515;28;20174;-68
2022/10/24 04:40:52;;;;;;;3.38;1.27;;;18.70;99.90;;;;;;5056633;28;20247;-68
2022/10/24 04:43:20;;;;;;;2.22;0.98;;;18.70;99.90;;;;;;5073792;28;20306;-68
2022/10/24 04:45:46;;;;;;;0.90;0.90;;;18.70;99.90;;;;;;5073517;28;20293;-68
2022/10/24 04:48:14;;;;;;;1.27;1.17;;;18.80;99.90;;;;;;5073337;28;20182;-68
2022/10/24 04:50:42;;;;;;;2.38;1.13;;;18.70;99.90;;;;;;5056222;28;20227;-68
2022/10/24 04:53:11;;;;;;;1.75;0.93;;;18.70;99.90;;;;;;5055910;28;20227;-70
2022/10/24 04:55:38;;;;;;;1.88;0.90;;;18.70;99.90;;;;;;5074175;28;20217;-71
2022/10/24 04:58:05;;;;;;;2.35;1.13;;;18.70;99.90;;;;;;5073106;28;20181;-71
2022/10/24 05:00:31;;;;;;;2.88;1.10;;;18.80;99.90;;;;;;5056147;28;20673;-71
2022/10/24 05:02:56;;;;;;;1.40;1.30;;;18.70;99.90;;;;;;5056557;28;20208;-71
2022/10/24 05:05:22;;;;;;;1.88;1.00;;;18.70;99.90;;;;;;5056288;28;20658;-71
2022/10/24 05:07:48;;;;;;;2.92;0.80;;;18.70;99.90;;;;;;5056135;28;20549;-71
2022/10/24 05:10:15;;;;;;;1.20;0.90;;;18.80;99.90;;;;;;5074149;28;20181;-71
2022/10/24 05:12:42;;;;;;;2.45;1.00;;;18.70;99.90;;;;;;5072361;28;20202;-72
2022/10/24 05:15:09;;;;;;;2.17;1.10;;;18.70;99.90;;;;;;5072286;28;20182;-71
2022/10/24 05:17:36;;;;;;;3.03;1.05;;;18.70;99.90;;;;;;5073464;28;20216;-71
2022/10/24 05:20:03;;;;;;;1.77;1.20;;;18.80;99.90;;;;;;5055860;28;20181;-71
2022/10/24 05:22:28;;;;;;;2.03;0.95;;;18.70;99.90;;;;;;5073315;28;20205;-71
2022/10/24 05:24:54;;;;;;;2.83;1.40;;;18.70;99.90;;;;;;5072054;28;20189;-71
2022/10/24 05:27:23;;;;;;;2.58;1.27;;;18.70;99.90;;;;;;5073105;28;20200;-70
2022/10/24 05:29:51;;;;;;;1.77;1.00;;;18.70;99.90;;;;;;5055464;28;20192;-71
2022/10/24 05:32:17;;;;;;;2.85;0.80;;;18.70;99.90;;;;;;5055292;28;20201;-71
2022/10/24 05:34:43;;;;;;;1.75;1.05;;;18.70;99.90;;;;;;5055405;28;20194;-71
2022/10/24 05:37:09;;;;;;;2.05;1.00;;;18.70;99.90;;;;;;5054322;28;20220;-70
2022/10/24 05:39:35;;;;;;;1.52;1.00;;;18.70;99.90;;;;;;5071358;28;20186;-71
2022/10/24 05:42:01;;;;;;;4.90;1.23;;;18.70;99.90;;;;;;5070697;28;20247;-71
2022/10/24 05:44:27;;;;;;;4.00;1.30;;;18.70;99.90;;;;;;5071487;28;20181;-71
2022/10/24 05:46:53;;;;;;;2.30;1.30;;;18.70;99.90;;;;;;5053998;28;20178;-71
2022/10/24 05:49:19;;;;;;;2.55;1.17;;;18.70;99.90;;;;;;5068359;28;20647;-71
2022/10/24 05:51:44;;;;;;;1.52;1.20;;;18.70;99.90;;;;;;5052835;28;20203;-70
2022/10/24 05:54:10;;;;;;;4.03;1.33;;;18.70;99.90;;;;;;5035124;28;20193;-71
2022/10/24 05:56:36;;;;;;;1.02;0.80;;;18.70;99.90;;;;;;5034565;28;20228;-70
2022/10/24 05:59:02;;;;;;;2.13;1.00;;;18.70;99.90;;;;;;5051491;28;20236;-71
2022/10/24 06:01:30;;;;;;;3.60;1.10;;;18.70;99.90;;;;;;5052908;28;20202;-71
2022/10/24 06:03:56;;;;;;;2.40;1.00;;;18.70;99.90;;;;;;5052295;28;20179;-71
2022/10/24 06:06:23;;;;;;;3.17;1.00;;;18.70;99.90;;;;;;5034793;28;20346;-71
2022/10/24 06:08:50;;;;;;;1.85;1.10;;;18.70;99.90;;;;;;5052515;28;20265;-71
2022/10/24 06:11:16;;;;;;;2.15;0.95;;;18.70;99.90;;;;;;5067956;28;20214;-71
2022/10/24 06:13:42;;;;;;;1.85;1.00;;;18.70;99.90;;;;;;5051220;28;20206;-71
2022/10/24 06:16:10;;;;;;;2.30;0.98;;;18.70;99.90;;;;;;5034504;28;20211;-71
2022/10/24 06:18:38;;;;;;;1.60;0.98;;;18.70;99.90;;;;;;5052305;28;20269;-71
2022/10/24 06:21:08;;;;;;;2.22;1.25;;;18.70;99.90;;;;;;5051043;28;20210;-71
2022/10/24 06:23:34;;;;;;;1.45;1.13;;;18.70;99.90;;;;;;5034414;28;20205;-71
2022/10/24 06:26:01;;;;;;;1.50;0.90;;;18.70;99.90;;;;;;5034689;28;20224;-71
2022/10/24 06:28:27;;;;;;;1.90;0.95;;;18.70;99.90;;;;;;5051165;28;20195;-71
2022/10/24 06:30:53;;;;;;;2.60;0.95;;;18.70;99.90;;;;;;5034461;28;20213;-71
2022/10/24 06:33:19;;;;;;;3.75;1.00;;;18.70;99.90;;;;;;5034343;28;20236;-71
2022/10/24 06:35:46;;;;;;;3.72;1.48;;;18.70;99.90;;;;;;5067508;28;20244;-71
2022/10/24 06:38:12;;;;;;;3.15;0.95;;;18.70;99.90;;;;;;5050542;28;20243;-71
2022/10/24 06:40:41;;;;;;;2.28;1.00;;;18.70;99.90;;;;;;5034418;28;20183;-70
2022/10/24 06:43:07;;;;;;;1.63;0.98;;;18.70;99.90;;;;;;5050700;28;20283;-71
2022/10/24 06:45:33;;;;;;;2.22;1.20;;;18.70;99.90;;;;;;5067631;28;20214;-71
2022/10/24 06:47:59;;;;;;;2.20;0.90;;;18.70;99.90;;;;;;5033949;28;20218;-71
2022/10/24 06:50:25;;;;;;;1.95;1.10;;;18.70;99.90;;;;;;5054981;28;20178;-71
2022/10/24 06:52:50;;;;;;;2.20;1.20;;;18.70;99.90;;;;;;5070667;28;20653;-71
2022/10/24 06:55:16;;;;;;;1.63;0.88;;;18.70;99.90;;;;;;5070694;28;20189;-71
2022/10/24 06:57:42;;;;;;;2.70;1.25;;;18.70;99.90;;;;;;5053684;28;20218;-71
2022/10/24 07:00:09;;;;;;;1.58;1.00;;;18.70;99.90;;;;;;5053999;28;20182;-70
2022/10/24 07:02:35;;;;;;;1.33;1.17;;;18.70;99.90;;;;;;5053641;28;20202;-71
2022/10/24 07:05:01;;;;;;;2.35;1.08;;;18.70;99.90;;;;;;5053968;28;20190;-70
2022/10/24 07:07:27;;;;;;;2.78;1.08;;;18.70;99.90;;;;;;5070409;28;20189;-71
2022/10/24 07:09:56;;;;;;;2.63;1.00;;;18.70;99.90;;;;;;5084469;28;20196;-70
2022/10/24 07:12:24;;;;;;;1.92;1.00;;;18.70;99.90;;;;;;5087309;28;20210;-71
2022/10/24 07:14:50;;;;;;;1.38;1.08;;;18.70;99.90;;;;;;5070668;28;20242;-71
2022/10/24 07:17:18;;;;;;;2.60;1.10;;;18.70;99.90;;;;;;5074053;28;20598;-71
2022/10/24 07:19:43;;;;;;;1.65;0.90;;;18.70;99.90;;;;;;5076088;28;20181;-71
2022/10/24 07:22:09;;;;;;;1.65;0.93;;;18.70;99.90;;;;;;5076830;28;20229;-71
2022/10/24 07:24:36;;;;;;;2.40;1.20;;;18.70;99.90;;;;;;5074532;28;20178;-71
2022/10/24 07:27:01;;;;;;;3.17;1.20;;;18.70;99.90;;;;;;5074229;28;20204;-71
2022/10/24 07:29:27;;;;;;;2.60;1.15;;;18.70;99.90;;;;;;5091758;28;20182;-71
2022/10/24 07:31:53;;;;;;;2.83;1.00;;;18.70;99.90;;;;;;5091042;28;20685;-71
2022/10/24 07:34:19;;;;;;;2.65;1.20;;;18.70;99.90;;;;;;5091099;28;20194;-71
2022/10/24 07:36:45;;;;;;;2.38;0.90;;;18.70;99.90;;;;;;5090762;28;20838;-71
2022/10/24 07:39:12;;;;;;;2.15;0.80;;;18.70;99.90;;;;;;5077260;28;20272;-71
2022/10/24 07:41:41;;;;;;;1.73;1.02;;;18.70;99.90;;;;;;5091139;28;20220;-71
2022/10/24 07:44:08;;;;;;;1.00;0.90;;;18.70;99.90;;;;;;5091009;28;20189;-70
2022/10/24 07:46:34;;;;;;;2.22;1.00;;;18.70;99.90;;;;;;5090614;28;20630;-71
2022/10/24 07:48:59;;;;;;;1.20;1.00;;;18.70;99.90;;;;;;5074096;28;20182;-71
2022/10/24 07:51:28;;;;;;;1.48;1.10;;;18.70;99.90;;;;;;5074001;28;20210;-71
2022/10/24 07:53:57;;;;;;;2.92;1.02;;;18.70;99.90;;;;;;5090945;28;20178;-71
2022/10/24 07:56:22;;;;;;;1.08;0.93;;;18.70;99.90;;;;;;5073594;28;20645;-70
2022/10/24 07:58:48;;;;;;;1.70;0.95;;;18.70;99.90;;;;;;5073866;28;20272;-71
2022/10/24 08:01:21;;;;;;;1.33;0.93;;;18.70;99.90;;;;;;5057365;28;20284;-71
2022/10/24 08:03:48;;;;;;;2.17;1.27;;;18.70;99.90;;;;;;5090862;28;20243;-71
2022/10/24 08:06:21;;;;;;;1.58;0.80;;;18.70;99.90;;;;;;5057076;28;20649;-71
2022/10/24 08:08:47;;;;;;;2.22;1.30;;;18.70;99.90;;;;;;5090519;28;20181;-71
2022/10/24 08:11:17;;;;;;;0.88;0.85;;;18.70;99.90;;;;;;5090343;28;20220;-71
2022/10/24 08:13:44;;;;;;;1.33;0.90;;;18.70;99.90;;;;;;5073524;28;20190;-71
2022/10/24 08:16:13;;;;;;;1.30;1.02;;;18.70;99.90;;;;;;5074562;28;20243;-71
2022/10/24 08:18:39;;;;;;;1.25;0.80;;;18.70;99.90;;;;;;5056574;28;20181;-69
2022/10/24 08:21:12;;;;;;;1.10;1.00;;;18.70;99.90;;;;;;5073288;28;20262;-71
2022/10/24 08:23:42;;;;;;;1.45;1.00;;;18.70;99.90;;;;;;5074498;28;20182;-71
2022/10/24 08:26:12;;;;;;;0.95;0.90;;;18.70;99.90;;;;;;5056361;28;20181;-71
2022/10/24 08:28:38;;;;;;;1.92;0.90;;;18.70;99.90;;;;;;5056497;28;20239;-71
2022/10/24 08:31:10;;;;;;;1.77;0.90;;;18.70;99.90;;;;;;5090057;28;20255;-71
2022/10/24 08:33:35;;;;;;;1.58;1.10;;;18.70;99.90;;;;;;5074491;28;20644;-71
2022/10/24 08:36:12;;;;;;;1.92;1.13;;;18.70;99.90;;;;;;5072996;28;20217;-71
2022/10/24 08:38:38;;;;;;;1.58;0.93;;;18.70;99.90;;;;;;5056329;28;20178;-71
2022/10/24 08:41:05;;;;;;;2.00;0.95;;;18.70;99.90;;;;;;5056188;28;20202;-71
2022/10/24 08:43:31;;;;;;;2.22;1.00;;;18.70;99.90;;;;;;5056537;28;20205;-70
2022/10/24 08:46:25;;;;;;;1.75;1.10;;;18.70;99.90;;;;;;5073116;28;20197;-71
2022/10/24 08:49:36;;;;;;;3.38;1.10;;;18.70;99.90;;;;;;5072686;28;20243;-71
2022/10/24 08:52:39;;;;;;;1.23;1.00;;;18.70;99.90;;;;;;5053936;28;20209;-71
2022/10/24 08:55:18;;;;;;;1.55;1.08;;;18.70;99.90;;;;;;5072312;28;20193;-71
2022/10/24 08:57:53;;;;;;;1.05;0.80;;;18.70;99.90;;;;;;5072409;28;20224;-70
2022/10/24 09:00:30;;;;;;;1.80;1.08;;;18.70;99.90;;;;;;5072423;28;20192;-71
2022/10/24 09:03:30;;;;;;;1.15;0.82;;;18.70;99.90;;;;;;5072555;28;20186;-71
2022/10/24 09:06:02;;;;;;;1.83;1.00;;;18.70;99.90;;;;;;5039212;28;20281;-71
2022/10/24 09:08:50;;;;;;;3.50;1.17;;;18.70;99.90;;;;;;5073264;28;20185;-71
2022/10/24 09:11:46;;;;;;;3.00;1.27;;;18.70;99.90;;;;;;5072397;28;20708;-71
2022/10/24 09:14:22;;;;;;;1.27;1.10;;;18.70;99.90;;;;;;5089249;28;20189;-71
2022/10/24 09:17:41;;;;;;;1.90;0.90;;;18.70;99.90;;;;;;5089057;28;20214;-71
2022/10/24 09:20:22;;;;;;;2.10;0.93;;;18.70;99.90;;;;;;5072240;28;20221;-71
2022/10/24 09:22:48;;;;;;;1.98;1.05;;;18.70;99.90;;;;;;5089106;28;20232;-71
2022/10/24 09:25:21;;;;;;;2.03;1.10;;;18.70;99.90;;;;;;5089106;28;20178;-71
2022/10/24 09:27:48;;;;;;;3.05;1.10;;;18.70;99.90;;;;;;5071924;28;20220;-71
2022/10/24 09:30:23;;;;;;;1.45;0.90;;;18.70;99.90;;;;;;5072131;28;20181;-70
2022/10/24 09:32:50;;;;;;;1.88;1.08;;;18.70;99.90;;;;;;5072139;28;20209;-70
2022/10/24 09:35:25;;;;;;;1.88;0.90;;;18.70;99.90;;;;;;5070922;28;20178;-71
2022/10/24 09:38:30;;;;;;;2.10;1.00;;;18.70;99.90;;;;;;5088172;28;20181;-71
2022/10/24 09:41:02;;;;;;;1.63;0.95;;;18.70;99.90;;;;;;5088637;28;20201;-70
2022/10/24 09:43:43;;;;;;;2.13;0.95;;;18.70;99.90;;;;;;5088716;28;20186;-70
2022/10/24 09:46:13;;;;;;;1.83;1.02;;;18.70;99.90;;;;;;5088692;28;20239;-70
2022/10/24 09:49:21;;;;;;;1.83;1.10;;;18.70;99.90;;;;;;5088538;28;20175;-71
2022/10/24 09:52:18;;;;;;;1.58;1.20;;;18.70;99.90;;;;;;5030579;28;20219;-71
2022/10/24 09:54:45;;;;;;;2.15;1.05;;;18.70;99.90;;;;;;5030616;28;20198;-71
2022/10/24 09:57:10;;;;;;;1.85;0.80;;;18.70;99.90;;;;;;5060619;28;20312;-71
2022/10/24 09:59:46;;;;;;;1.25;0.85;;;18.70;99.90;;;;;;5073014;28;20274;-71
2022/10/24 10:02:33;;;;;;;1.77;1.17;;;18.70;99.90;;;;;;5072713;28;20228;-71
2022/10/24 10:05:01;;;;;;;1.50;0.80;;;18.70;99.90;;;;;;5088168;28;20173;-71
2022/10/24 10:07:37;;;;;;;1.25;1.05;;;18.70;99.90;;;;;;5087780;28;20649;-70
2022/10/24 10:10:30;;;;;;;2.92;0.98;;;18.70;99.90;;;;;;5071522;28;20190;-70
2022/10/24 10:13:27;;;;;;;2.83;1.00;;;18.70;99.90;;;;;;5071703;28;20181;-71
2022/10/24 10:16:04;;;;;;;1.25;0.85;;;18.70;99.90;;;;;;5088083;28;20288;-71
2022/10/24 10:18:40;;;;;;;3.20;0.98;;;18.70;99.90;;;;;;5072277;28;20208;-71
2022/10/24 10:21:19;;;;;;;2.95;1.23;;;18.70;99.90;;;;;;5072136;28;20213;-71
2022/10/24 10:23:54;;;;;;;1.45;0.98;;;18.70;99.90;;;;;;5070905;28;20186;-71
2022/10/24 10:26:44;;;;;;;1.10;1.00;;;18.70;99.90;;;;;;5071341;28;20185;-71
2022/10/24 10:29:16;;;;;;;2.92;1.20;;;18.70;99.90;;;;;;5071106;28;20189;-71
2022/10/24 10:32:05;;;;;;;3.88;1.30;;;18.70;99.90;;;;;;5070797;28;20209;-71
2022/10/24 10:34:46;;;;;;;1.13;1.00;;;18.70;99.90;;;;;;5053924;28;20186;-70
2022/10/24 10:37:37;;;;;;;1.05;0.70;;;18.70;99.90;;;;;;5070039;28;20210;-71
2022/10/24 10:40:19;;;;;;;1.63;1.20;;;18.70;99.90;;;;;;5053814;28;20273;-71
2022/10/24 10:43:19;;;;;;;1.73;0.90;;;18.70;99.90;;;;;;5069807;28;20280;-71
2022/10/24 10:45:53;;;;;;;2.85;1.00;;;18.70;99.90;;;;;;5069395;28;20185;-71
2022/10/24 10:49:02;;;;;;;1.65;1.00;;;18.70;99.90;;;;;;5088089;28;20174;-70
2022/10/24 10:51:34;;;;;;;2.03;0.93;;;18.70;99.90;;;;;;5070285;28;20209;-71
2022/10/24 10:54:24;;;;;;;2.38;1.15;;;18.70;99.90;;;;;;5054689;28;20197;-71
2022/10/24 10:57:18;;;;;;;2.92;1.08;;;18.70;99.90;;;;;;5054487;28;20217;-70
2022/10/24 11:00:23;;;;;;;1.65;0.88;;;18.70;99.90;;;;;;5054393;28;20181;-71
2022/10/24 11:03:44;;;;;;;1.00;0.82;;;18.70;99.90;;;;;;5072092;28;20212;-71
2022/10/24 11:06:27;;;;;;;1.48;0.80;;;18.70;99.90;;;;;;5050070;28;20223;-70
2022/10/24 11:09:21;;;;;;;1.23;0.95;;;18.70;99.90;;;;;;5070897;28;20256;-70
2022/10/24 11:12:22;;;;;;;1.45;0.98;;;18.70;99.90;;;;;;5054341;28;20285;-71
2022/10/24 11:15:13;;;;;;;2.03;1.10;;;18.70;99.90;;;;;;5070870;28;20173;-71
2022/10/24 11:17:55;;;;;;;1.55;1.20;;;18.70;99.90;;;;;;5053936;28;20244;-71
2022/10/24 11:21:00;;;;;;;2.78;1.40;;;18.70;99.90;;;;;;5067228;28;20189;-71
2022/10/24 11:23:41;;;;;;;2.40;1.30;;;18.70;99.90;;;;;;5054364;28;20208;-71
2022/10/24 11:26:16;;;;;;;3.17;1.42;;;18.70;99.90;;;;;;5071706;28;20181;-71
2022/10/24 11:29:15;;;;;;;2.47;1.40;;;18.70;99.90;;;;;;5053771;28;20234;-72
2022/10/24 11:31:56;;;;;;;2.47;1.50;;;18.70;99.90;;;;;;5070997;28;20218;-72
2022/10/24 11:34:39;;;;;;;2.30;1.45;;;18.70;99.90;;;;;;5071044;28;20221;-72
2022/10/24 11:37:19;;;;;;;2.47;1.42;;;18.70;99.90;;;;;;5070505;28;20220;-72
2022/10/24 11:39:55;;;;;;;3.25;1.73;;;18.70;99.90;;;;;;5053989;28;20174;-72
2022/10/24 11:42:51;;;;;;;3.88;1.75;;;18.70;99.90;;;;;;5054030;28;20204;-72
2022/10/24 11:45:33;;;;;;;2.88;1.80;;;18.70;99.90;;;;;;5054315;28;20178;-71
2022/10/24 11:48:12;;;;;;;2.45;1.63;;;18.70;99.90;;;;;;5070736;28;20201;-72
2022/10/24 11:51:13;;;;;;;3.15;2.28;;;18.70;99.90;;;;;;5054109;28;20287;-72
2022/10/24 11:54:06;;;;;;;3.08;2.00;;;18.70;99.90;;;;;;5064564;28;20200;-71
2022/10/24 11:56:54;;;;;;;2.58;1.75;;;18.70;99.90;;;;;;5054578;28;20211;-72
2022/10/24 11:59:24;;;;;;;4.03;2.00;;;18.70;99.90;;;;;;5066358;28;20206;-72
2022/10/24 12:02:27;;;;;;;3.92;2.10;;;18.80;99.90;;;;;;5053549;28;20201;-72
2022/10/24 12:05:27;;;;;;;5.22;2.50;;;18.80;99.90;;;;;;5053097;28;20182;-72
2022/10/24 12:08:28;;;;;;;4.10;2.30;;;18.70;99.90;;;;;;5062246;28;20217;-72
2022/10/24 12:11:10;;;;;;;4.15;2.05;;;18.80;99.90;;;;;;5055339;28;20209;-72
2022/10/24 12:14:02;;;;;;;3.33;2.20;;;18.70;99.90;;;;;;5073420;28;20207;-72
2022/10/24 12:16:49;;;;;;;3.97;2.33;;;18.70;99.90;;;;;;5084950;28;20204;-72
2022/10/24 12:19:20;;;;;;;4.07;2.10;;;18.70;99.90;;;;;;5075789;28;20262;-72
2022/10/24 12:21:51;;;;;;;4.57;2.60;;;18.80;99.90;;;;;;5052837;28;20259;-73
2022/10/24 12:24:29;;;;;;;4.40;2.15;;;18.80;99.90;;;;;;5069511;28;20183;-72
2022/10/24 12:27:05;;;;;;;6.28;2.70;;;18.80;99.90;;;;;;5053986;28;20188;-72
2022/10/24 12:29:35;;;;;;;3.90;2.25;;;18.80;99.90;;;;;;5053917;28;20217;-72
2022/10/24 12:32:36;;;;;;;5.80;2.60;;;18.80;99.90;;;;;;5053861;28;20202;-72
2022/10/24 12:35:26;;;;;;;6.05;2.70;;;18.70;99.90;;;;;;5046387;28;20244;-72
2022/10/24 12:37:53;;;;;;;5.68;2.83;;;18.80;99.90;;;;;;5054424;28;20225;-73
2022/10/24 12:40:48;;;;;;;4.70;2.50;;;18.80;99.90;;;;;;5092991;28;20193;-72
2022/10/24 12:43:34;;;;;;;4.93;2.47;;;18.70;99.90;;;;;;5070473;28;20208;-72
2022/10/24 12:46:13;;;;;;;5.57;2.33;;;18.70;99.90;;;;;;5092639;28;20185;-72
2022/10/24 12:48:41;;;;;;;5.22;2.50;;;18.80;99.90;;;;;;5094013;28;20172;-73
2022/10/24 12:51:27;;;;;;;4.82;2.60;;;18.70;99.90;;;;;;5075993;28;20257;-72
2022/10/24 12:54:11;;;;;;;5.40;2.30;;;18.80;99.90;;;;;;5087757;28;20256;-72
2022/10/24 12:56:49;;;;;;;5.18;2.70;;;18.80;99.90;;;;;;5072133;28;20225;-72
2022/10/24 12:59:27;;;;;;;4.88;2.47;;;18.80;99.90;;;;;;5092429;28;20189;-71
2022/10/24 13:02:12;;;;;;;5.30;2.50;;;18.80;99.90;;;;;;5092339;28;20216;-73
2022/10/24 13:04:43;;;;;;;3.60;2.60;;;18.80;99.90;;;;;;5074991;28;20249;-72
2022/10/24 13:08:06;;;;;;;5.53;2.63;;;18.80;99.90;;;;;;5071854;28;20228;-71
2022/10/24 13:11:08;;;;;;;5.70;2.45;;;18.80;99.90;;;;;;4994440;28;20184;-72
2022/10/24 13:14:20;;;;;;;4.38;2.30;;;18.80;99.90;;;;;;5054438;28;20188;-72
2022/10/24 13:17:20;;;;;;;4.20;2.40;;;18.80;99.90;;;;;;5072058;28;20193;-72
2022/10/24 13:19:46;;;;;;;5.18;2.45;;;18.80;99.90;;;;;;5072287;28;20170;-72
2022/10/24 13:22:31;;;;;;;3.80;2.50;;;18.80;99.90;;;;;;5103407;22;20239;-68
2022/10/24 13:24:59;;;;;;;4.78;2.53;;;18.80;99.90;;;;;;5070430;28;20645;-68